sensor_id;sensor_type;location;lat;lon;timestamp;P1;durP1;ratioP1;P2;durP2;ratioP2
10381;SDS011;11635;53.636;10.120;2023-04-28T00:00:44;10.43;;;9.32;;
10381;SDS011;11635;53.636;10.120;2023-04-28T00:03:12;10.98;;;8.48;;
10381;SDS011;11635;53.636;10.120;2023-04-28T00:05:42;13.18;;;9.98;;
10381;SDS011;11635;53.636;10.120;2023-04-28T00:08:10;16.75;;;10.30;;
10381;SDS011;11635;53.636;10.120;2023-04-28T00:10:38;11.93;;;10.27;;
10381;SDS011;11635;53.636;10.120;2023-04-28T00:13:04;14.10;;;10.07;;
10381;SDS011;11635;53.636;10.120;2023-04-28T00:15:31;13.32;;;9.18;;
10381;SDS011;11635;53.636;10.120;2023-04-28T00:17:57;12.82;;;10.32;;
10381;SDS011;11635;53.636;10.120;2023-04-28T00:20:24;14.63;;;9.60;;
10381;SDS011;11635;53.636;10.120;2023-04-28T00:22:50;14.82;;;10.10;;
10381;SDS011;11635;53.636;10.120;2023-04-28T00:25:17;14.23;;;10.00;;
10381;SDS011;11635;53.636;10.120;2023-04-28T00:27:44;13.15;;;10.65;;
10381;SDS011;11635;53.636;10.120;2023-04-28T00:30:11;15.10;;;10.40;;
10381;SDS011;11635;53.636;10.120;2023-04-28T00:32:37;15.80;;;11.23;;
10381;SDS011;11635;53.636;10.120;2023-04-28T00:35:04;14.98;;;9.63;;
10381;SDS011;11635;53.636;10.120;2023-04-28T00:37:34;12.55;;;9.73;;
10381;SDS011;11635;53.636;10.120;2023-04-28T00:40:00;12.63;;;9.98;;
10381;SDS011;11635;53.636;10.120;2023-04-28T00:42:26;15.52;;;10.00;;
10381;SDS011;11635;53.636;10.120;2023-04-28T00:44:54;15.55;;;9.68;;
10381;SDS011;11635;53.636;10.120;2023-04-28T00:47:21;11.73;;;10.18;;
10381;SDS011;11635;53.636;10.120;2023-04-28T00:49:47;12.65;;;9.43;;
10381;SDS011;11635;53.636;10.120;2023-04-28T00:52:14;14.02;;;10.50;;
10381;SDS011;11635;53.636;10.120;2023-04-28T00:54:41;13.07;;;9.93;;
10381;SDS011;11635;53.636;10.120;2023-04-28T00:57:08;12.65;;;9.63;;
10381;SDS011;11635;53.636;10.120;2023-04-28T00:59:35;14.40;;;10.00;;
10381;SDS011;11635;53.636;10.120;2023-04-28T01:02:02;12.52;;;9.50;;
10381;SDS011;11635;53.636;10.120;2023-04-28T01:04:30;13.88;;;8.90;;
10381;SDS011;11635;53.636;10.120;2023-04-28T01:06:57;17.13;;;9.95;;
10381;SDS011;11635;53.636;10.120;2023-04-28T01:09:23;12.98;;;9.90;;
10381;SDS011;11635;53.636;10.120;2023-04-28T01:11:50;12.93;;;9.65;;
10381;SDS011;11635;53.636;10.120;2023-04-28T01:14:16;12.70;;;9.48;;
10381;SDS011;11635;53.636;10.120;2023-04-28T01:16:43;13.50;;;10.05;;
10381;SDS011;11635;53.636;10.120;2023-04-28T01:19:12;13.27;;;10.38;;
10381;SDS011;11635;53.636;10.120;2023-04-28T01:21:41;12.32;;;9.23;;
10381;SDS011;11635;53.636;10.120;2023-04-28T01:24:10;14.02;;;9.77;;
10381;SDS011;11635;53.636;10.120;2023-04-28T01:26:36;14.25;;;9.60;;
10381;SDS011;11635;53.636;10.120;2023-04-28T01:29:02;14.95;;;10.27;;
10381;SDS011;11635;53.636;10.120;2023-04-28T01:31:29;13.18;;;10.00;;
10381;SDS011;11635;53.636;10.120;2023-04-28T01:33:55;10.70;;;9.43;;
10381;SDS011;11635;53.636;10.120;2023-04-28T01:36:22;14.50;;;10.30;;
10381;SDS011;11635;53.636;10.120;2023-04-28T01:38:49;14.10;;;10.60;;
10381;SDS011;11635;53.636;10.120;2023-04-28T01:41:17;12.27;;;9.18;;
10381;SDS011;11635;53.636;10.120;2023-04-28T01:43:43;14.52;;;9.07;;
10381;SDS011;11635;53.636;10.120;2023-04-28T01:46:09;14.73;;;9.75;;
10381;SDS011;11635;53.636;10.120;2023-04-28T01:48:36;10.52;;;9.00;;
10381;SDS011;11635;53.636;10.120;2023-04-28T01:51:02;12.43;;;10.45;;
10381;SDS011;11635;53.636;10.120;2023-04-28T01:53:29;11.80;;;8.70;;
10381;SDS011;11635;53.636;10.120;2023-04-28T01:55:55;12.73;;;8.90;;
10381;SDS011;11635;53.636;10.120;2023-04-28T01:58:23;13.27;;;9.50;;
10381;SDS011;11635;53.636;10.120;2023-04-28T02:00:50;13.80;;;9.43;;
10381;SDS011;11635;53.636;10.120;2023-04-28T02:03:16;13.77;;;10.23;;
10381;SDS011;11635;53.636;10.120;2023-04-28T02:05:43;14.02;;;9.45;;
10381;SDS011;11635;53.636;10.120;2023-04-28T02:08:09;13.35;;;9.68;;
10381;SDS011;11635;53.636;10.120;2023-04-28T02:10:35;13.90;;;9.23;;
10381;SDS011;11635;53.636;10.120;2023-04-28T02:13:02;13.63;;;9.82;;
10381;SDS011;11635;53.636;10.120;2023-04-28T02:15:29;14.23;;;9.90;;
10381;SDS011;11635;53.636;10.120;2023-04-28T02:17:56;10.45;;;9.10;;
10381;SDS011;11635;53.636;10.120;2023-04-28T02:20:22;15.50;;;10.05;;
10381;SDS011;11635;53.636;10.120;2023-04-28T02:22:49;14.45;;;9.52;;
10381;SDS011;11635;53.636;10.120;2023-04-28T02:25:15;14.85;;;10.15;;
10381;SDS011;11635;53.636;10.120;2023-04-28T02:27:42;12.60;;;10.02;;
10381;SDS011;11635;53.636;10.120;2023-04-28T02:30:09;15.30;;;9.80;;
10381;SDS011;11635;53.636;10.120;2023-04-28T02:32:36;10.80;;;9.38;;
10381;SDS011;11635;53.636;10.120;2023-04-28T02:35:03;11.35;;;9.27;;
10381;SDS011;11635;53.636;10.120;2023-04-28T02:37:29;12.82;;;9.15;;
10381;SDS011;11635;53.636;10.120;2023-04-28T02:39:56;13.35;;;9.30;;
10381;SDS011;11635;53.636;10.120;2023-04-28T02:42:22;12.75;;;10.07;;
10381;SDS011;11635;53.636;10.120;2023-04-28T02:44:48;10.73;;;9.52;;
10381;SDS011;11635;53.636;10.120;2023-04-28T02:47:15;13.98;;;9.63;;
10381;SDS011;11635;53.636;10.120;2023-04-28T02:49:42;15.35;;;9.93;;
10381;SDS011;11635;53.636;10.120;2023-04-28T02:52:09;13.25;;;9.63;;
10381;SDS011;11635;53.636;10.120;2023-04-28T02:54:35;10.80;;;9.13;;
10381;SDS011;11635;53.636;10.120;2023-04-28T02:57:01;12.30;;;9.35;;
10381;SDS011;11635;53.636;10.120;2023-04-28T02:59:28;12.23;;;9.02;;
10381;SDS011;11635;53.636;10.120;2023-04-28T03:01:55;10.43;;;8.85;;
10381;SDS011;11635;53.636;10.120;2023-04-28T03:04:21;11.90;;;8.82;;
10381;SDS011;11635;53.636;10.120;2023-04-28T03:06:49;11.07;;;8.98;;
10381;SDS011;11635;53.636;10.120;2023-04-28T03:09:16;11.75;;;8.80;;
10381;SDS011;11635;53.636;10.120;2023-04-28T03:11:42;11.35;;;9.68;;
10381;SDS011;11635;53.636;10.120;2023-04-28T03:14:08;11.52;;;8.95;;
10381;SDS011;11635;53.636;10.120;2023-04-28T03:16:35;10.05;;;8.63;;
10381;SDS011;11635;53.636;10.120;2023-04-28T03:19:01;12.15;;;7.97;;
10381;SDS011;11635;53.636;10.120;2023-04-28T03:21:28;10.98;;;7.68;;
10381;SDS011;11635;53.636;10.120;2023-04-28T03:23:55;10.35;;;8.63;;
10381;SDS011;11635;53.636;10.120;2023-04-28T03:26:22;10.88;;;8.80;;
10381;SDS011;11635;53.636;10.120;2023-04-28T03:28:48;9.90;;;8.45;;
10381;SDS011;11635;53.636;10.120;2023-04-28T03:31:14;9.93;;;8.30;;
10381;SDS011;11635;53.636;10.120;2023-04-28T03:33:41;10.35;;;7.70;;
10381;SDS011;11635;53.636;10.120;2023-04-28T03:36:09;11.77;;;8.73;;
10381;SDS011;11635;53.636;10.120;2023-04-28T03:38:35;13.60;;;8.60;;
10381;SDS011;11635;53.636;10.120;2023-04-28T03:41:03;11.30;;;8.23;;
10381;SDS011;11635;53.636;10.120;2023-04-28T03:43:30;9.95;;;7.88;;
10381;SDS011;11635;53.636;10.120;2023-04-28T03:45:57;13.32;;;8.48;;
10381;SDS011;11635;53.636;10.120;2023-04-28T03:48:23;10.68;;;8.20;;
10381;SDS011;11635;53.636;10.120;2023-04-28T03:50:50;11.30;;;8.55;;
10381;SDS011;11635;53.636;10.120;2023-04-28T03:53:16;14.93;;;8.38;;
10381;SDS011;11635;53.636;10.120;2023-04-28T03:55:42;10.35;;;8.30;;
10381;SDS011;11635;53.636;10.120;2023-04-28T03:58:10;12.50;;;8.20;;
10381;SDS011;11635;53.636;10.120;2023-04-28T04:00:37;11.68;;;8.48;;
10381;SDS011;11635;53.636;10.120;2023-04-28T04:03:03;16.17;;;8.75;;
10381;SDS011;11635;53.636;10.120;2023-04-28T04:05:29;11.50;;;8.93;;
10381;SDS011;11635;53.636;10.120;2023-04-28T04:07:56;11.27;;;8.02;;
10381;SDS011;11635;53.636;10.120;2023-04-28T04:10:22;9.90;;;7.80;;
10381;SDS011;11635;53.636;10.120;2023-04-28T04:12:49;11.13;;;7.78;;
10381;SDS011;11635;53.636;10.120;2023-04-28T04:15:16;11.48;;;8.32;;
10381;SDS011;11635;53.636;10.120;2023-04-28T04:17:43;12.98;;;8.65;;
10381;SDS011;11635;53.636;10.120;2023-04-28T04:20:09;9.50;;;8.25;;
10381;SDS011;11635;53.636;10.120;2023-04-28T04:22:36;11.55;;;8.05;;
10381;SDS011;11635;53.636;10.120;2023-04-28T04:25:02;13.30;;;8.07;;
10381;SDS011;11635;53.636;10.120;2023-04-28T04:27:29;10.55;;;8.55;;
10381;SDS011;11635;53.636;10.120;2023-04-28T04:29:55;10.02;;;7.68;;
10381;SDS011;11635;53.636;10.120;2023-04-28T04:32:23;13.98;;;8.00;;
10381;SDS011;11635;53.636;10.120;2023-04-28T04:34:50;10.07;;;7.82;;
10381;SDS011;11635;53.636;10.120;2023-04-28T04:37:16;11.98;;;8.93;;
10381;SDS011;11635;53.636;10.120;2023-04-28T04:39:43;9.90;;;7.80;;
10381;SDS011;11635;53.636;10.120;2023-04-28T04:42:09;9.75;;;7.65;;
10381;SDS011;11635;53.636;10.120;2023-04-28T04:44:36;10.70;;;8.23;;
10381;SDS011;11635;53.636;10.120;2023-04-28T04:47:02;10.32;;;7.93;;
10381;SDS011;11635;53.636;10.120;2023-04-28T04:49:30;10.00;;;7.45;;
10381;SDS011;11635;53.636;10.120;2023-04-28T04:51:56;11.57;;;7.32;;
10381;SDS011;11635;53.636;10.120;2023-04-28T04:54:23;9.35;;;7.05;;
10381;SDS011;11635;53.636;10.120;2023-04-28T04:56:49;11.32;;;7.05;;
10381;SDS011;11635;53.636;10.120;2023-04-28T04:59:16;10.48;;;7.65;;
10381;SDS011;11635;53.636;10.120;2023-04-28T05:01:42;8.20;;;6.68;;
10381;SDS011;11635;53.636;10.120;2023-04-28T05:04:09;8.82;;;7.07;;
10381;SDS011;11635;53.636;10.120;2023-04-28T05:06:36;11.18;;;7.35;;
10381;SDS011;11635;53.636;10.120;2023-04-28T05:09:03;10.68;;;7.13;;
10381;SDS011;11635;53.636;10.120;2023-04-28T05:11:29;8.30;;;6.10;;
10381;SDS011;11635;53.636;10.120;2023-04-28T05:13:56;8.43;;;6.30;;
10381;SDS011;11635;53.636;10.120;2023-04-28T05:16:22;8.50;;;6.82;;
10381;SDS011;11635;53.636;10.120;2023-04-28T05:18:48;7.55;;;6.75;;
10381;SDS011;11635;53.636;10.120;2023-04-28T05:21:15;8.05;;;5.85;;
10381;SDS011;11635;53.636;10.120;2023-04-28T05:23:44;8.30;;;6.03;;
10381;SDS011;11635;53.636;10.120;2023-04-28T05:26:14;9.13;;;6.30;;
10381;SDS011;11635;53.636;10.120;2023-04-28T05:28:42;9.82;;;6.20;;
10381;SDS011;11635;53.636;10.120;2023-04-28T05:31:10;5.95;;;5.13;;
10381;SDS011;11635;53.636;10.120;2023-04-28T05:33:38;7.05;;;5.93;;
10381;SDS011;11635;53.636;10.120;2023-04-28T05:36:07;8.57;;;6.25;;
10381;SDS011;11635;53.636;10.120;2023-04-28T05:38:35;7.97;;;5.05;;
10381;SDS011;11635;53.636;10.120;2023-04-28T05:41:03;10.35;;;6.43;;
10381;SDS011;11635;53.636;10.120;2023-04-28T05:43:30;6.75;;;5.45;;
10381;SDS011;11635;53.636;10.120;2023-04-28T05:45:56;6.20;;;5.40;;
10381;SDS011;11635;53.636;10.120;2023-04-28T05:48:23;6.35;;;5.35;;
10381;SDS011;11635;53.636;10.120;2023-04-28T05:50:56;7.97;;;5.70;;
10381;SDS011;11635;53.636;10.120;2023-04-28T05:53:30;7.03;;;6.15;;
10381;SDS011;11635;53.636;10.120;2023-04-28T05:55:58;7.95;;;5.10;;
10381;SDS011;11635;53.636;10.120;2023-04-28T05:58:35;8.57;;;5.18;;
10381;SDS011;11635;53.636;10.120;2023-04-28T06:01:02;8.25;;;5.53;;
10381;SDS011;11635;53.636;10.120;2023-04-28T06:03:28;7.45;;;5.15;;
10381;SDS011;11635;53.636;10.120;2023-04-28T06:05:55;8.70;;;4.90;;
10381;SDS011;11635;53.636;10.120;2023-04-28T06:10:48;8.85;;;5.78;;
10381;SDS011;11635;53.636;10.120;2023-04-28T06:13:15;7.75;;;5.75;;
10381;SDS011;11635;53.636;10.120;2023-04-28T06:15:43;7.82;;;4.95;;
10381;SDS011;11635;53.636;10.120;2023-04-28T06:18:09;6.47;;;5.07;;
10381;SDS011;11635;53.636;10.120;2023-04-28T06:20:36;7.25;;;4.18;;
10381;SDS011;11635;53.636;10.120;2023-04-28T06:23:02;5.32;;;4.43;;
10381;SDS011;11635;53.636;10.120;2023-04-28T06:25:31;11.25;;;4.75;;
10381;SDS011;11635;53.636;10.120;2023-04-28T06:27:58;4.45;;;4.05;;
10381;SDS011;11635;53.636;10.120;2023-04-28T06:30:25;5.25;;;3.88;;
10381;SDS011;11635;53.636;10.120;2023-04-28T06:32:56;5.25;;;4.03;;
10381;SDS011;11635;53.636;10.120;2023-04-28T06:35:22;6.47;;;4.32;;
10381;SDS011;11635;53.636;10.120;2023-04-28T22:13:21;12.68;;;10.20;;
10381;SDS011;11635;53.636;10.120;2023-04-28T22:15:51;14.25;;;10.38;;
10381;SDS011;11635;53.636;10.120;2023-04-28T22:18:21;14.68;;;10.70;;
10381;SDS011;11635;53.636;10.120;2023-04-28T22:20:49;13.18;;;9.73;;
10381;SDS011;11635;53.636;10.120;2023-04-28T22:23:21;12.70;;;9.95;;
10381;SDS011;11635;53.636;10.120;2023-04-28T22:25:47;12.18;;;10.00;;
10381;SDS011;11635;53.636;10.120;2023-04-28T22:28:15;12.25;;;10.07;;
10381;SDS011;11635;53.636;10.120;2023-04-28T22:30:47;12.30;;;9.20;;
10381;SDS011;11635;53.636;10.120;2023-04-28T22:33:14;12.38;;;9.55;;
10381;SDS011;11635;53.636;10.120;2023-04-28T22:35:44;11.15;;;9.95;;
10381;SDS011;11635;53.636;10.120;2023-04-28T22:38:22;12.43;;;9.27;;
10381;SDS011;11635;53.636;10.120;2023-04-28T22:40:52;10.48;;;9.02;;
10381;SDS011;11635;53.636;10.120;2023-04-28T22:43:18;16.27;;;9.73;;
10381;SDS011;11635;53.636;10.120;2023-04-28T22:45:50;10.20;;;8.98;;
10381;SDS011;11635;53.636;10.120;2023-04-28T22:48:22;10.23;;;8.48;;
10381;SDS011;11635;53.636;10.120;2023-04-28T22:50:51;12.27;;;8.60;;
10381;SDS011;11635;53.636;10.120;2023-04-28T22:53:23;13.25;;;9.15;;
10381;SDS011;11635;53.636;10.120;2023-04-28T22:55:50;10.00;;;9.00;;
10381;SDS011;11635;53.636;10.120;2023-04-28T23:30:04;10.40;;;8.88;;
10381;SDS011;11635;53.636;10.120;2023-04-28T23:32:31;13.13;;;9.13;;
10381;SDS011;11635;53.636;10.120;2023-04-28T23:34:57;10.85;;;9.30;;
10381;SDS011;11635;53.636;10.120;2023-04-28T23:37:24;12.45;;;9.18;;
10381;SDS011;11635;53.636;10.120;2023-04-28T23:39:50;11.65;;;8.68;;
10381;SDS011;11635;53.636;10.120;2023-04-28T23:42:16;11.35;;;9.02;;
10381;SDS011;11635;53.636;10.120;2023-04-28T23:44:43;11.55;;;9.25;;
10381;SDS011;11635;53.636;10.120;2023-04-28T23:47:11;12.73;;;10.25;;
10381;SDS011;11635;53.636;10.120;2023-04-28T23:49:38;14.00;;;10.02;;
10381;SDS011;11635;53.636;10.120;2023-04-28T23:52:04;12.70;;;9.88;;
10381;SDS011;11635;53.636;10.120;2023-04-28T23:54:31;12.23;;;10.23;;
10381;SDS011;11635;53.636;10.120;2023-04-28T23:56:58;13.40;;;10.52;;
10381;SDS011;11635;53.636;10.120;2023-04-28T23:59:24;11.40;;;10.00;;
